• Join FlightAware (Why Join?)
  • Login
  • US Flag 
04:44AM EDT


 

Airport Tracker/Info


-or-


 

Live Flight TrackerFlight Track Log ✈ N225SB ✈ 08-Nov-2013 ✈ KBED - KFTY

Flight Track Log - Related Links

Times and Time Zones

All times are in EST time to prevent confusion due to time zone crossing. See the N225SB flight status page for this flight to view local times or setup timezone preferences in your user account.

Time Position Orientation Groundspeed Altitude Reporting Facility
EST Latitude Longitude Course Direction KTS MPH feet Rate Location/Type
12:31PM 42.4667 -71.3333 216° Southwest 216 249 1,600  Level KA90
12:32PM 42.4500 -71.3500 216° Southwest 235 270 2,400 3,240 Climbing KA90
12:34PM 42.3847 -71.5417 245° Southwest 258 297 10,000 3,000 Climbing Boston Center
12:35PM 42.3703 -71.6425 259° West 273 314 12,300 2,040 Climbing Boston Center
12:36PM 42.3536 -71.7647 260° West 326 375 14,300 2,160 Climbing Boston Center
12:37PM 42.3286 -71.9044 256° West 356 410 16,800 2,220 Climbing Boston Center
12:38PM 42.3022 -72.0331 255° West 368 423 18,900 1,980 Climbing Boston Center
12:39PM 42.2758 -72.1744 256° West 366 421 20,900 1,860 Climbing Boston Center
12:40PM 42.2478 -72.3083 254° West 373 429 22,800 1,860 Climbing Boston Center
12:41PM 42.2206 -72.4414 255° West 371 427 24,800 1,860 Climbing Boston Center
12:42PM 42.1931 -72.5711 254° West 364 419 26,600 1,740 Climbing Boston Center
12:43PM 42.1664 -72.6972 254° West 354 407 28,400 1,620 Climbing Boston Center
12:44PM 42.1122 -72.8050 236° Southwest 351 404 30,000 1,080 Climbing Boston Center
12:49PM 41.8190 -73.2380 236° Southwest 100 115 34,700 900 Climbing FlightAware
12:49PM 41.7720 -73.2980 224° Southwest 339 390 35,200 720 Climbing FlightAware
12:50PM 41.7290 -73.3520 223° Southwest 362 417 35,600 660 Climbing FlightAware
12:51PM 41.6880 -73.4050 224° Southwest 336 387 36,000 600 Climbing FlightAware
12:51PM 41.6470 -73.4570 223° Southwest 346 398 36,300 480 Climbing FlightAware
12:52PM 41.5950 -73.5240 224° Southwest 355 409 36,700 600 Climbing FlightAware
12:53PM 41.5430 -73.5900 224° Southwest 339 390 37,200 540 Climbing FlightAware
12:53PM 41.4950 -73.6500 223° Southwest 347 399 37,500 540 Climbing FlightAware
12:54PM 41.4550 -73.7000 223° Southwest 341 392 37,900 360 Climbing FlightAware
12:55PM 41.4030 -73.7660 224° Southwest 339 390 38,000 60 Climbing FlightAware
12:55PM 41.3620 -73.8180 224° Southwest 374 430 38,000  Level FlightAware
12:56PM 41.3250 -73.8640 223° Southwest 362 417 38,000  Level FlightAware
12:56PM 41.2820 -73.9190 224° Southwest 360 414 38,000  Level FlightAware
12:58PM 41.1930 -74.0290 223° Southwest 389 448 38,000  Level FlightAware
12:58PM 41.1430 -74.0950 225° Southwest 382 440 38,000  Level FlightAware
12:59PM 41.0950 -74.1710 230° Southwest 377 434 38,000  Level FlightAware
01:00PM 41.0480 -74.2460 230° Southwest 372 428 38,000  Level FlightAware
01:00PM 41.0090 -74.3090 231° Southwest 381 438 38,000  Level FlightAware
01:01PM 40.9750 -74.3630 230° Southwest 384 442 38,000  Level FlightAware
01:01PM 40.9300 -74.4330 230° Southwest 365 420 38,000  Level FlightAware
01:02PM 40.8970 -74.4860 231° Southwest 383 441 38,000  Level FlightAware
01:02PM 40.8570 -74.5490 230° Southwest 389 448 38,000  Level FlightAware
01:03PM 40.8200 -74.6080 230° Southwest 375 432 38,000  Level FlightAware
01:04PM 40.7730 -74.6820 230° Southwest 377 434 38,000  Level FlightAware
01:04PM 40.7270 -74.7530 229° Southwest 380 437 38,000  Level FlightAware
01:05PM 40.6930 -74.8060 230° Southwest 377 434 38,000  Level FlightAware
01:06PM 40.6420 -74.8850 230° Southwest 378 435 38,000  Level FlightAware
01:06PM 40.6030 -74.9470 230° Southwest 379 436 38,000  Level FlightAware
01:07PM 40.5510 -75.0270 229° Southwest 383 441 38,000  Level FlightAware
01:07PM 40.5170 -75.0740 226° Southwest 382 440 38,000  Level FlightAware
01:08PM 40.4710 -75.1510 232° Southwest 379 436 38,000  Level FlightAware
01:09PM 40.4310 -75.2140 230° Southwest 469 540 38,000  Level FlightAware
01:09PM 40.3910 -75.2760 230° Southwest 429 494 38,000  Level FlightAware
01:10PM 40.3340 -75.3650 230° Southwest 361 415 38,000 120 Level FlightAware
01:11PM 40.3020 -75.4170 231° Southwest 383 441 38,200 360 Climbing FlightAware
01:11PM 40.2640 -75.4790 231° Southwest 369 425 38,400 480 Climbing FlightAware
01:12PM 40.1950 -75.5950 232° Southwest 351 404 39,000 540 Climbing FlightAware
01:13PM 40.1590 -75.6500 229° Southwest 348 400 39,300 540 Climbing FlightAware
01:13PM 40.1270 -75.7000 230° Southwest 359 413 39,600 540 Climbing FlightAware
01:14PM 40.0910 -75.7580 231° Southwest 343 395 39,900 240 Climbing FlightAware
01:15PM 40.0550 -75.8160 231° Southwest 361 415 39,900 60 Level FlightAware
01:15PM 40.0250 -75.8650 231° Southwest 357 411 40,000 60 Climbing FlightAware
01:16PM 39.9940 -75.9170 232° Southwest 359 413 40,000  Level FlightAware
01:16PM 39.9420 -75.9990 230° Southwest 360 414 40,000  Level FlightAware
01:17PM 39.9000 -76.0650 230° Southwest 354 407 40,000  Level FlightAware
01:18PM 39.8690 -76.1150 231° Southwest 341 392 40,000  Level FlightAware
01:18PM 39.8270 -76.1810 230° Southwest 362 417 40,000  Level FlightAware
01:19PM 39.7940 -76.2320 230° Southwest 360 414 40,000  Level FlightAware
01:19PM 39.7630 -76.2820 231° Southwest 365 420 40,000  Level FlightAware
01:20PM 39.6900 -76.3970 231° Southwest 356 410 40,000  Level FlightAware
01:21PM 39.6270 -76.4980 231° Southwest 360 414 40,000  Level FlightAware
01:22PM 39.5890 -76.5560 230° Southwest 357 411 40,000  Level FlightAware
01:23PM 39.5470 -76.6240 231° Southwest 359 413 40,000  Level FlightAware
01:23PM 39.5100 -76.6820 230° Southwest 358 412 40,000  Level FlightAware
01:24PM 39.4620 -76.7560 230° Southwest 368 423 40,000  Level FlightAware
01:24PM 39.4330 -76.8020 231° Southwest 356 410 40,000  Level FlightAware
01:25PM 39.3960 -76.8610 231° Southwest 357 411 40,000  Level FlightAware
01:26PM 39.3530 -76.9280 230° Southwest 351 404 40,000  Level FlightAware
01:26PM 39.3070 -76.9990 230° Southwest 360 414 40,000  Level FlightAware
01:27PM 39.2680 -77.0590 230° Southwest 367 422 40,000  Level FlightAware
01:27PM 39.2450 -77.0940 230° Southwest 359 413 40,000  Level FlightAware
01:28PM 39.1860 -77.1840 230° Southwest 365 420 40,000  Level FlightAware
01:29PM 39.1420 -77.2510 230° Southwest 368 423 40,000  Level FlightAware
01:29PM 39.1090 -77.3020 230° Southwest 370 426 40,000  Level FlightAware
01:30PM 39.0680 -77.3630 229° Southwest 373 429 40,000  Level FlightAware
01:31PM 39.0140 -77.4480 231° Southwest 381 438 40,000  Level FlightAware
01:32PM 38.9600 -77.5300 230° Southwest 375 432 40,000  Level FlightAware
01:32PM 38.9260 -77.5830 231° Southwest 375 432 40,000  Level FlightAware
01:33PM 38.8800 -77.6520 229° Southwest 359 413 40,000  Level FlightAware
01:34PM 38.8350 -77.7200 230° Southwest 381 438 40,000  Level FlightAware
01:34PM 38.8120 -77.7570 231° Southwest 371 427 40,000  Level FlightAware
01:35PM 38.7630 -77.8290 229° Southwest 365 420 40,000  Level FlightAware
01:35PM 38.7330 -77.8740 229° Southwest 361 415 40,000  Level FlightAware
01:36PM 38.6960 -77.9290 229° Southwest 374 430 40,000  Level FlightAware
01:36PM 38.6510 -77.9980 230° Southwest 366 421 40,000  Level FlightAware
01:37PM 38.6080 -78.0630 230° Southwest 363 418 40,000  Level FlightAware
01:38PM 38.5400 -78.1650 230° Southwest 355 409 40,000  Level FlightAware
01:39PM 38.5110 -78.2100 231° Southwest 351 404 40,000  Level FlightAware
01:40PM 38.4600 -78.2910 231° Southwest 351 404 40,000  Level FlightAware
01:40PM 38.4210 -78.3470 228° Southwest 361 415 40,000  Level FlightAware
01:41PM 38.3860 -78.4000 230° Southwest 361 415 40,000  Level FlightAware
01:42PM 38.3330 -78.4800 230° Southwest 361 415 40,000  Level FlightAware
01:42PM 38.2890 -78.5470 230° Southwest 361 415 40,000  Level FlightAware
01:43PM 38.2670 -78.5800 230° Southwest 361 415 40,000  Level FlightAware
01:43PM 38.2330 -78.6330 231° Southwest 361 415 40,000  Level FlightAware
01:44PM 38.1780 -78.7160 230° Southwest 361 415 40,000  Level FlightAware
01:45PM 38.1340 -78.7820 230° Southwest 361 415 40,000  Level FlightAware
01:46PM 38.1000 -78.8330 230° Southwest 361 415 40,000  Level FlightAware
01:47PM 38.0470 -78.9130 230° Southwest 361 415 40,000  Level FlightAware
01:47PM 38.0260 -78.9460 231° Southwest 361 415 40,000  Level FlightAware
01:48PM 37.9910 -78.9990 230° Southwest 361 415 40,000  Level FlightAware
01:48PM 37.9580 -79.0480 230° Southwest 361 415 40,000  Level FlightAware
01:49PM 37.9250 -79.0980 230° Southwest 361 415 40,000  Level FlightAware
01:50PM 37.8910 -79.1490 230° Southwest 361 415 40,000  Level FlightAware
01:50PM 37.8800 -79.1660 231° Southwest 361 415 40,000  Level FlightAware
01:51PM 37.7242 -79.4250 231° Southwest 367 422 40,000  Level Washington Center
01:52PM 37.6628 -79.5139 229° Southwest 375 432 40,000  Level Washington Center
01:53PM 37.5883 -79.6200 228° Southwest 375 432 40,000  Level Washington Center
01:54PM 37.5292 -79.7058 229° Southwest 375 432 40,000  Level Washington Center
01:55PM 37.4564 -79.8172 231° Southwest 375 432 40,000  Level Washington Center
01:56PM 37.3900 -79.9206 231° Southwest 390 449 40,000  Level Washington Center
01:58PM 37.2292 -80.1525 229° Southwest 368 423 40,000  Level Atlanta Center
01:59PM 37.1614 -80.2522 230° Southwest 374 430 40,000  Level Atlanta Center
02:00PM 37.0994 -80.3436 230° Southwest 374 430 40,000  Level Atlanta Center
02:01PM 37.0317 -80.4431 230° Southwest 374 430 40,000  Level Atlanta Center
02:02PM 36.9636 -80.5422 229° Southwest 374 430 40,000  Level Atlanta Center
02:03PM 36.8933 -80.6414 228° Southwest 374 430 40,000  Level Atlanta Center
02:04PM 36.8192 -80.7483 229° Southwest 374 430 40,000  Level Atlanta Center
02:05PM 36.7531 -80.8469 230° Southwest 374 430 40,000  Level Atlanta Center
02:06PM 36.6844 -80.9453 229° Southwest 374 430 40,000  Level Atlanta Center
02:07PM 36.6181 -81.0436 230° Southwest 374 430 40,000  Level Atlanta Center
02:08PM 36.5578 -81.1286 229° Southwest 368 423 40,000  Level Atlanta Center
02:09PM 36.4850 -81.2344 229° Southwest 368 423 40,000  Level Atlanta Center
02:10PM 36.4164 -81.3297 228° Southwest 368 423 40,000  Level Atlanta Center
02:11PM 36.3475 -81.4275 229° Southwest 368 423 40,000  Level Atlanta Center
02:12PM 36.2808 -81.5250 230° Southwest 373 429 40,000  Level Atlanta Center
02:13PM 36.2097 -81.6225 228° Southwest 373 429 40,000  Level Atlanta Center
02:14PM 36.1406 -81.7222 229° Southwest 373 429 40,000  Level Atlanta Center
02:15PM 36.0717 -81.8192 229° Southwest 373 429 40,000 -480 Level Atlanta Center
02:16PM 35.9983 -81.9186 228° Southwest 373 429 39,100 -1,080 Descending Atlanta Center
02:17PM 35.9331 -82.0128 229° Southwest 373 429 37,900 -1,200 Descending Atlanta Center
02:18PM 35.8636 -82.1094 228° Southwest 373 429 36,800 -1,200 Descending Atlanta Center
02:19PM 35.7944 -82.2083 229° Southwest 378 435 35,600 -900 Descending Atlanta Center
02:20PM 35.7247 -82.3019 227° Southwest 378 435 35,000 -300 Descending Atlanta Center
02:21PM 35.6531 -82.4006 228° Southwest 378 435 35,000  Level Atlanta Center
02:22PM 35.5814 -82.4989 228° Southwest 388 447 35,000 -360 Level Atlanta Center
02:23PM 35.5075 -82.6000 228° Southwest 393 452 34,300 -1,140 Descending Atlanta Center
02:24PM 35.4397 -82.6978 230° Southwest 393 452 32,800 -1,500 Descending Atlanta Center
02:25PM 35.3697 -82.7933 228° Southwest 386 444 31,300 -1,500 Descending Atlanta Center
02:26PM 35.2956 -82.8936 228° Southwest 391 450 29,900 -1,440 Descending Atlanta Center
02:27PM 35.2275 -82.9861 228° Southwest 399 459 28,500 -1,500 Descending Atlanta Center
02:28PM 35.1472 -83.0989 229° Southwest 399 459 26,900 -1,560 Descending Atlanta Center
02:29PM 35.0686 -83.2014 227° Southwest 405 466 25,400 -1,560 Descending Atlanta Center
02:30PM 34.9922 -83.3061 228° Southwest 410 472 23,800 -1,800 Descending Atlanta Center
02:31PM 34.9175 -83.4056 228° Southwest 417 480 21,800 -2,040 Descending Atlanta Center
02:32PM 34.8408 -83.5047 227° Southwest 409 471 19,800 -2,040 Descending Atlanta Center
02:33PM 34.7681 -83.6039 228° Southwest 396 456 17,800 -1,620 Descending Atlanta Center
02:34PM 34.7036 -83.6875 227° Southwest 389 448 16,600 -1,500 Descending Atlanta Center
02:35PM 34.6289 -83.7864 227° Southwest 389 448 14,800 -1,860 Descending Atlanta Center
02:36PM 34.5622 -83.8772 228° Southwest 381 438 12,900 -1,860 Descending Atlanta Center
02:37PM 34.4933 -83.9683 227° Southwest 368 423 11,100 -1,500 Descending Atlanta Center
02:38PM 34.4142 -84.0211 209° Southwest 345 397 9,900 -1,380 Descending Atlanta Center
02:39PM 34.3369 -84.0614 203° Southwest 308 354 8,400 -960 Descending Atlanta Center
02:40PM 34.2597 -84.1017 203° Southwest 303 349 8,000 -960 Descending Atlanta Center
02:41PM 34.1950 -84.1669 220° Southwest 288 331 6,500 -1,020 Descending Atlanta Center
02:42PM 34.1386 -84.2294 223° Southwest 283 326 6,000 -360 Descending Atlanta Center
02:43PM 34.1000 -84.2667 219° Southwest 279 321 6,000 -720 Level Atlanta TRACON
02:44PM 34.0500 -84.3333 228° Southwest 281 323 4,900 -1,020 Descending Atlanta TRACON
02:45PM 34.0000 -84.4000 228° Southwest 257 296 4,000 -720 Descending Atlanta TRACON
02:46PM 33.9500 -84.4333 209° Southwest 230 265 3,500 -540 Descending Atlanta TRACON
02:47PM 33.8833 -84.4500 192° South 226 260 3,000 -600 Descending Atlanta TRACON
02:48PM 33.8333 -84.4667 195° South 185 213 2,400 -720 Descending Atlanta TRACON
02:49PM 33.7833 -84.4667 180° South 147 169 1,600 -840 Descending Atlanta TRACON
02:50PM 33.7667 -84.5167 220° Southwest  Level FlightAware Approximate
02:57PM 33.7791 -84.5214 220° Southwest  Level Estimated
02:58PM 33.7791 -84.5214 220° Southwest  Level Estimated